Time;durP1;ratioP1;P1;durP2;ratioP2;P2;SDS_P1;SDS_P2;PMS_P1;PMS_P2;Temp;Humidity;BMP_temperature;BMP_pressure;BME280_temperature;BME280_humidity;BME280_pressure;Samples;Min_cycle;Max_cycle;Signal;HPM_P1;HPM_P2
2022/11/12 00:00:16;;;;;;;17.88;10.88;;;7.20;99.90;;;;;;5060951;28;20064;-63
2022/11/12 00:02:42;;;;;;;14.35;10.43;;;7.20;99.90;;;;;;5056531;28;20044;-63
2022/11/12 00:05:08;;;;;;;16.00;11.75;;;7.20;99.90;;;;;;5056015;28;20484;-63
2022/11/12 00:07:33;;;;;;;17.45;11.65;;;7.10;99.90;;;;;;5068322;28;20055;-63
2022/11/12 00:09:59;;;;;;;13.20;10.02;;;7.10;99.90;;;;;;5063159;28;20024;-63
2022/11/12 00:12:24;;;;;;;14.95;10.07;;;7.10;99.90;;;;;;5069476;28;20021;-63
2022/11/12 00:14:50;;;;;;;21.90;13.55;;;7.10;99.90;;;;;;5071166;28;20492;-63
2022/11/12 00:17:15;;;;;;;18.88;12.10;;;7.00;99.90;;;;;;5071425;28;20147;-63
2022/11/12 00:19:41;;;;;;;18.27;11.70;;;7.00;99.90;;;;;;5071230;28;20097;-63
2022/11/12 00:22:06;;;;;;;11.60;8.93;;;6.90;99.90;;;;;;5070971;28;20029;-63
2022/11/12 00:24:32;;;;;;;12.52;9.43;;;6.90;99.90;;;;;;5071584;28;20028;-63
2022/11/12 00:26:57;;;;;;;18.23;11.35;;;6.90;99.90;;;;;;5082178;28;20419;-63
2022/11/12 00:29:23;;;;;;;15.80;11.35;;;6.90;99.90;;;;;;5071158;28;20016;-63
2022/11/12 00:31:48;;;;;;;13.40;9.60;;;6.90;99.90;;;;;;5070985;28;20112;-63
2022/11/12 00:34:14;;;;;;;13.80;10.65;;;6.90;99.90;;;;;;5071239;28;20043;-63
2022/11/12 00:36:39;;;;;;;15.75;10.60;;;6.80;99.90;;;;;;5070884;28;20070;-63
2022/11/12 00:39:05;;;;;;;15.60;9.20;;;6.80;99.90;;;;;;5071023;28;20471;-63
2022/11/12 00:41:30;;;;;;;16.48;9.43;;;6.80;99.90;;;;;;5070956;28;20035;-63
2022/11/12 00:43:56;;;;;;;13.65;10.70;;;6.90;99.90;;;;;;5070875;28;20090;-63
2022/11/12 00:46:21;;;;;;;13.70;10.68;;;6.80;99.90;;;;;;5086504;28;20069;-63
2022/11/12 00:48:47;;;;;;;17.20;11.43;;;6.80;99.90;;;;;;5071079;28;20028;-63
2022/11/12 00:51:12;;;;;;;15.20;11.00;;;6.80;99.90;;;;;;5070891;28;20082;-63
2022/11/12 00:53:38;;;;;;;13.82;9.48;;;6.80;99.90;;;;;;5070896;28;20468;-63
2022/11/12 00:56:05;;;;;;;13.82;9.15;;;6.90;99.90;;;;;;5070859;28;20029;-63
2022/11/12 00:58:33;;;;;;;11.93;8.85;;;6.90;99.90;;;;;;5070827;28;20495;-63
2022/11/12 01:01:11;;;;;;;9.85;7.25;;;6.90;99.90;;;;;;5069596;28;20025;-63
2022/11/12 01:03:37;;;;;;;12.35;8.43;;;7.00;99.90;;;;;;5070553;28;20088;-63
2022/11/12 01:06:06;;;;;;;9.85;7.43;;;6.90;99.90;;;;;;5070573;28;20040;-63
2022/11/12 01:08:32;;;;;;;10.18;7.15;;;6.90;99.90;;;;;;5070611;28;20017;-63
2022/11/12 01:11:05;;;;;;;10.70;7.07;;;6.90;99.90;;;;;;5070763;28;20021;-63
2022/11/12 01:13:31;;;;;;;11.25;6.93;;;7.00;99.90;;;;;;5070228;28;20514;-63
2022/11/12 01:15:56;;;;;;;9.13;6.95;;;6.90;99.90;;;;;;5070336;28;20107;-63
2022/11/12 01:18:22;;;;;;;14.23;10.13;;;7.00;99.90;;;;;;5070684;28;20644;-63
2022/11/12 01:20:47;;;;;;;15.35;10.45;;;6.90;99.90;;;;;;5070604;28;20028;-63
2022/11/12 01:23:13;;;;;;;15.30;11.63;;;6.80;99.90;;;;;;5070328;28;20146;-63
2022/11/12 01:25:38;;;;;;;13.88;10.95;;;6.80;99.90;;;;;;5071317;28;20095;-63
2022/11/12 01:28:04;;;;;;;16.75;9.57;;;6.70;99.90;;;;;;5070435;28;20383;-63
2022/11/12 01:30:29;;;;;;;9.75;7.90;;;6.70;99.90;;;;;;5070408;28;20112;-63
2022/11/12 01:32:55;;;;;;;9.98;8.13;;;6.70;99.90;;;;;;5070508;28;20029;-63
2022/11/12 01:35:21;;;;;;;9.07;6.75;;;6.70;99.90;;;;;;5070578;28;20131;-63
2022/11/12 01:37:47;;;;;;;8.82;6.57;;;6.80;99.90;;;;;;5070007;28;20112;-63
2022/11/12 01:40:13;;;;;;;10.95;7.22;;;6.80;99.90;;;;;;5070650;28;20044;-63
2022/11/12 01:42:39;;;;;;;11.52;6.78;;;6.80;99.90;;;;;;5070382;28;20036;-62
2022/11/12 01:45:14;;;;;;;8.45;6.35;;;6.80;99.90;;;;;;5070434;28;20028;-63
2022/11/12 01:47:43;;;;;;;11.20;7.05;;;6.80;99.90;;;;;;5069524;28;20439;-63
2022/11/12 01:50:24;;;;;;;8.20;6.05;;;6.80;99.90;;;;;;5070229;28;20468;-63
2022/11/12 01:52:59;;;;;;;11.48;7.93;;;6.80;99.90;;;;;;5070688;28;20009;-63
2022/11/12 01:55:29;;;;;;;15.10;9.88;;;6.80;99.90;;;;;;5070142;28;20068;-63
2022/11/12 01:58:08;;;;;;;14.75;10.45;;;6.70;99.90;;;;;;5070391;28;20024;-63
2022/11/12 02:00:34;;;;;;;16.08;10.13;;;6.60;99.90;;;;;;5070651;28;20115;-63
2022/11/12 02:03:02;;;;;;;13.73;8.65;;;6.60;99.90;;;;;;5070337;28;20421;-63
2022/11/12 02:05:29;;;;;;;9.73;7.15;;;6.50;99.90;;;;;;5070024;28;20029;-63
2022/11/12 02:07:57;;;;;;;9.02;7.03;;;6.50;99.90;;;;;;5070089;28;20025;-63
2022/11/12 02:10:23;;;;;;;8.18;5.72;;;6.50;99.90;;;;;;5068481;28;20064;-63
2022/11/12 02:15:36;;;;;;;12.38;8.68;;;6.60;99.90;;;;;;5071067;28;20108;-63
2022/11/12 02:18:02;;;;;;;14.82;9.15;;;6.50;99.90;;;;;;5073984;28;20044;-63
2022/11/12 02:20:32;;;;;;;13.18;8.90;;;6.40;99.90;;;;;;5073160;28;20550;-63
2022/11/12 02:22:58;;;;;;;13.57;8.52;;;6.40;99.90;;;;;;5073089;28;20024;-63
2022/11/12 02:25:25;;;;;;;11.65;7.55;;;6.30;99.90;;;;;;5073449;28;20233;-63
2022/11/12 02:27:53;;;;;;;9.70;6.75;;;6.40;99.90;;;;;;5073321;28;20512;-63
2022/11/12 02:30:30;;;;;;;7.13;5.35;;;6.40;99.90;;;;;;5073509;28;20078;-63
2022/11/12 02:32:56;;;;;;;7.55;6.05;;;6.40;99.90;;;;;;5073563;28;20353;-63
2022/11/12 02:35:21;;;;;;;7.13;5.63;;;6.40;99.90;;;;;;5073757;28;20468;-63
2022/11/12 02:37:47;;;;;;;7.20;5.53;;;6.30;99.90;;;;;;5086975;28;20017;-63
2022/11/12 02:40:12;;;;;;;6.20;5.10;;;6.30;99.90;;;;;;5073318;28;20028;-63
2022/11/12 02:42:38;;;;;;;12.88;8.65;;;6.30;99.90;;;;;;5085818;28;20028;-62
2022/11/12 02:45:04;;;;;;;17.08;11.13;;;6.30;99.90;;;;;;5073445;28;20094;-63
2022/11/12 02:47:29;;;;;;;12.77;9.93;;;6.20;99.90;;;;;;5084314;28;20037;-62
2022/11/12 02:49:55;;;;;;;13.13;10.07;;;6.20;99.90;;;;;;5086255;28;20025;-63
2022/11/12 02:52:20;;;;;;;14.25;9.98;;;6.20;99.90;;;;;;5073021;28;20048;-63
2022/11/12 02:54:46;;;;;;;14.93;10.05;;;6.20;99.90;;;;;;5072841;28;20017;-63
2022/11/12 02:57:11;;;;;;;13.00;9.25;;;6.10;99.90;;;;;;5072815;28;20017;-62
2022/11/12 02:59:37;;;;;;;17.35;10.88;;;6.10;99.90;;;;;;5073110;28;20435;-63
2022/11/12 03:02:02;;;;;;;13.52;9.13;;;6.10;99.90;;;;;;5072873;28;20024;-63
2022/11/12 03:04:28;;;;;;;15.13;9.88;;;6.10;99.90;;;;;;5069169;28;20021;-63
2022/11/12 03:06:53;;;;;;;15.68;11.02;;;6.10;99.90;;;;;;5073226;28;20020;-63
2022/11/12 03:09:19;;;;;;;13.55;8.60;;;6.10;99.90;;;;;;5071086;28;20025;-63
2022/11/12 03:11:44;;;;;;;11.77;7.90;;;6.10;99.90;;;;;;5072423;28;20110;-63
2022/11/12 03:14:10;;;;;;;10.57;7.88;;;6.10;99.90;;;;;;5073764;28;20143;-63
2022/11/12 03:16:35;;;;;;;10.40;8.05;;;6.10;99.90;;;;;;5072221;28;20658;-63
2022/11/12 03:19:01;;;;;;;13.00;9.23;;;6.10;99.90;;;;;;5072691;28;20024;-63
2022/11/12 03:21:26;;;;;;;12.60;8.65;;;6.10;99.90;;;;;;5072706;28;20028;-63
2022/11/12 03:23:52;;;;;;;13.93;9.43;;;6.00;99.90;;;;;;5071729;28;20027;-63
2022/11/12 03:26:17;;;;;;;12.80;8.55;;;6.00;99.90;;;;;;5072187;28;20028;-62
2022/11/12 03:28:43;;;;;;;10.15;8.07;;;6.00;99.90;;;;;;5083313;28;20396;-63
2022/11/12 03:31:10;;;;;;;14.60;9.15;;;6.00;99.90;;;;;;5072141;28;20037;-63
2022/11/12 03:33:36;;;;;;;13.88;9.32;;;6.00;99.90;;;;;;5072254;28;20107;-62
2022/11/12 03:36:03;;;;;;;16.20;10.20;;;5.90;99.90;;;;;;5085648;28;20100;-63
2022/11/12 03:38:28;;;;;;;13.57;9.85;;;5.90;99.90;;;;;;5072095;28;20103;-62
2022/11/12 03:40:54;;;;;;;14.65;9.73;;;5.80;99.90;;;;;;5072008;28;20450;-63
2022/11/12 03:43:19;;;;;;;14.07;9.82;;;5.80;99.90;;;;;;5071757;28;20454;-62
2022/11/12 03:45:45;;;;;;;11.43;7.85;;;5.80;99.90;;;;;;5072719;28;20495;-62
2022/11/12 03:48:10;;;;;;;10.52;7.22;;;5.70;99.90;;;;;;5071667;28;20473;-63
2022/11/12 03:50:36;;;;;;;8.27;6.40;;;5.80;99.90;;;;;;5072047;28;20107;-63
2022/11/12 03:53:02;;;;;;;12.43;7.07;;;5.80;99.90;;;;;;5071877;28;20020;-63
2022/11/12 03:55:28;;;;;;;9.60;6.43;;;5.80;99.90;;;;;;5085447;28;20017;-63
2022/11/12 03:57:55;;;;;;;10.48;8.23;;;5.80;99.90;;;;;;5071567;28;20019;-63
2022/11/12 04:00:22;;;;;;;17.10;11.05;;;5.80;99.90;;;;;;5071941;28;20035;-62
2022/11/12 04:02:48;;;;;;;16.27;10.40;;;5.80;99.90;;;;;;5071604;28;20556;-63
2022/11/12 04:10:57;;;;;;;17.35;11.95;;;5.50;99.90;;;;;;5071425;28;20022;-62
2022/11/12 04:13:28;;;;;;;18.10;11.32;;;5.50;99.90;;;;;;5069747;28;20108;-63
2022/11/12 04:21:53;;;;;;;16.13;11.55;;;5.40;99.90;;;;;;5071707;28;20046;-62
2022/11/12 04:27:15;;;;;;;20.27;12.38;;;5.40;99.90;;;;;;5071551;28;20039;-63
2022/11/12 04:32:26;;;;;;;15.65;11.07;;;5.40;99.90;;;;;;5071218;28;20125;-63
2022/11/12 04:34:52;;;;;;;19.50;11.82;;;5.40;99.90;;;;;;5071041;28;20040;-63
2022/11/12 04:37:23;;;;;;;15.45;10.65;;;5.50;99.90;;;;;;5071173;28;20055;-62
2022/11/12 04:39:49;;;;;;;12.38;9.15;;;5.50;99.90;;;;;;5070132;28;20029;-63
2022/11/12 04:45:00;;;;;;;11.90;8.05;;;5.50;99.90;;;;;;5070809;28;20118;-63
2022/11/12 04:47:36;;;;;;;9.93;7.97;;;5.50;99.90;;;;;;5071216;28;20036;-63
2022/11/12 04:50:06;;;;;;;12.75;8.32;;;5.60;99.90;;;;;;5071117;28;20415;-63
2022/11/12 04:52:31;;;;;;;17.45;10.90;;;5.60;99.90;;;;;;5070751;28;20388;-62
2022/11/12 04:54:57;;;;;;;17.30;10.48;;;5.50;99.90;;;;;;5071092;28;20016;-63
2022/11/12 04:57:23;;;;;;;17.48;10.70;;;5.50;99.90;;;;;;5070924;28;20025;-62
2022/11/12 04:59:49;;;;;;;19.02;11.38;;;5.50;99.90;;;;;;5070702;28;20016;-63
2022/11/12 05:02:16;;;;;;;16.20;10.70;;;5.50;99.90;;;;;;5071211;28;20358;-63
2022/11/12 05:04:42;;;;;;;17.60;11.73;;;5.40;99.90;;;;;;5086211;28;20020;-63
2022/11/12 05:07:08;;;;;;;17.40;10.77;;;5.40;99.90;;;;;;5070422;28;20051;-63
2022/11/12 05:09:34;;;;;;;20.50;11.45;;;5.30;99.90;;;;;;5071239;28;20107;-62
2022/11/12 05:12:00;;;;;;;14.85;10.00;;;5.30;99.90;;;;;;5054412;28;20108;-63
2022/11/12 05:14:25;;;;;;;14.52;10.63;;;5.30;99.90;;;;;;5068662;28;20325;-62
2022/11/12 05:16:51;;;;;;;17.35;10.18;;;5.20;99.90;;;;;;5070620;28;20029;-62
2022/11/12 05:19:18;;;;;;;16.73;9.73;;;5.10;99.90;;;;;;5054660;28;20024;-63
2022/11/12 05:24:28;;;;;;;16.38;10.30;;;5.10;99.90;;;;;;5070564;28;20027;-63
2022/11/12 05:26:54;;;;;;;15.32;9.48;;;5.10;99.90;;;;;;5070741;28;20017;-63
2022/11/12 05:29:19;;;;;;;15.55;10.50;;;5.10;99.90;;;;;;5068849;28;20465;-62
2022/11/12 05:31:45;;;;;;;14.18;10.10;;;5.10;99.90;;;;;;5070620;28;20500;-62
2022/11/12 05:34:11;;;;;;;15.95;9.85;;;5.10;99.90;;;;;;5067784;28;20365;-63
2022/11/12 05:36:36;;;;;;;15.90;10.30;;;5.10;99.90;;;;;;5070459;28;20025;-62
2022/11/12 05:39:03;;;;;;;17.02;10.30;;;5.10;99.90;;;;;;5070666;28;20544;-63
2022/11/12 05:41:28;;;;;;;14.57;10.80;;;5.10;99.90;;;;;;5070053;28;20086;-62
2022/11/12 05:43:54;;;;;;;18.65;10.65;;;5.10;99.90;;;;;;5083081;28;20048;-62
2022/11/12 05:46:20;;;;;;;17.88;10.68;;;5.00;99.90;;;;;;5070192;28;20043;-63
2022/11/12 05:48:45;;;;;;;15.93;9.57;;;5.00;99.90;;;;;;5070333;28;20056;-62
2022/11/12 05:51:12;;;;;;;15.73;9.77;;;5.00;99.90;;;;;;5073477;28;20028;-62
2022/11/12 05:53:38;;;;;;;14.93;9.80;;;5.00;99.90;;;;;;5064500;28;20021;-63
2022/11/12 05:56:05;;;;;;;19.23;10.27;;;5.00;99.90;;;;;;5056474;28;20043;-62
2022/11/12 05:58:31;;;;;;;14.75;9.65;;;5.00;99.90;;;;;;5061587;28;20484;-63
2022/11/12 06:00:57;;;;;;;16.30;9.40;;;5.00;99.90;;;;;;5056988;28;20073;-63
2022/11/12 06:03:24;;;;;;;11.32;8.90;;;5.00;99.90;;;;;;5060000;28;20029;-63
2022/11/12 06:05:49;;;;;;;11.63;8.82;;;5.00;99.90;;;;;;5056761;28;20032;-62
2022/11/12 06:08:15;;;;;;;11.20;8.20;;;5.10;99.90;;;;;;5058280;28;20536;-63
2022/11/12 06:10:41;;;;;;;14.10;8.82;;;5.10;99.90;;;;;;5055611;28;20029;-63
2022/11/12 06:13:06;;;;;;;14.18;8.23;;;5.10;99.90;;;;;;5054155;28;20089;-62
2022/11/12 06:15:32;;;;;;;11.45;8.27;;;5.10;99.90;;;;;;5059477;28;20504;-63
2022/11/12 06:17:58;;;;;;;15.98;9.45;;;5.10;99.90;;;;;;5077974;28;20044;-62
2022/11/12 06:20:23;;;;;;;15.25;8.57;;;5.10;99.90;;;;;;5060219;28;20032;-63
2022/11/12 06:22:49;;;;;;;14.65;9.20;;;5.10;99.90;;;;;;5061717;28;20017;-62
2022/11/12 06:25:15;;;;;;;12.73;8.48;;;5.00;99.90;;;;;;5063082;28;20036;-63
2022/11/12 06:27:42;;;;;;;12.05;8.15;;;5.00;99.90;;;;;;5053353;28;20492;-63
2022/11/12 06:30:08;;;;;;;15.68;9.18;;;5.00;99.90;;;;;;5061487;28;20036;-63
2022/11/12 06:32:34;;;;;;;13.30;8.65;;;5.00;99.90;;;;;;5068878;28;20020;-63
2022/11/12 06:35:00;;;;;;;12.07;8.02;;;5.00;99.90;;;;;;5074401;28;20036;-63
2022/11/12 06:37:25;;;;;;;15.27;8.73;;;5.00;99.90;;;;;;5072695;28;20473;-62
2022/11/12 06:39:51;;;;;;;12.77;9.10;;;5.00;99.90;;;;;;5071042;28;20033;-62
2022/11/12 06:42:17;;;;;;;12.98;7.68;;;5.00;99.90;;;;;;5064743;28;20025;-62
2022/11/12 06:44:42;;;;;;;11.43;8.25;;;4.90;99.90;;;;;;5069532;28;20037;-62
2022/11/12 06:47:09;;;;;;;12.90;9.15;;;4.90;99.90;;;;;;5073350;28;20017;-62
2022/11/12 06:49:34;;;;;;;11.93;7.75;;;4.90;99.90;;;;;;5074741;28;20106;-62
2022/11/12 06:52:00;;;;;;;11.38;7.15;;;4.90;99.90;;;;;;5074700;28;20080;-63
2022/11/12 06:54:26;;;;;;;12.38;7.22;;;4.90;99.90;;;;;;5072750;28;20488;-63
2022/11/12 06:56:51;;;;;;;12.75;7.45;;;4.90;99.90;;;;;;5073370;28;20031;-63
2022/11/12 06:59:17;;;;;;;11.48;7.47;;;5.00;99.90;;;;;;5074069;28;20031;-62
2022/11/12 07:01:43;;;;;;;10.40;7.30;;;4.90;99.90;;;;;;5073941;28;20028;-62
2022/11/12 07:04:09;;;;;;;13.27;8.82;;;4.90;99.90;;;;;;5068661;28;20029;-62
2022/11/12 07:06:35;;;;;;;13.98;7.80;;;5.00;99.90;;;;;;5066263;28;20081;-63
2022/11/12 07:09:02;;;;;;;8.98;6.80;;;5.00;99.90;;;;;;5072941;28;20035;-62
2022/11/12 07:11:28;;;;;;;11.65;7.57;;;5.00;99.90;;;;;;5067081;28;20468;-62
2022/11/12 07:13:53;;;;;;;9.63;7.20;;;5.00;99.90;;;;;;5058512;28;20035;-63
2022/11/12 07:16:19;;;;;;;11.45;6.40;;;5.10;99.90;;;;;;5072181;28;20020;-62
2022/11/12 07:18:46;;;;;;;11.32;7.32;;;5.10;99.90;;;;;;5072256;28;20031;-62
2022/11/12 07:21:17;;;;;;;9.73;7.35;;;5.10;99.90;;;;;;5073839;28;20029;-63
2022/11/12 07:23:43;;;;;;;12.88;7.32;;;5.10;99.90;;;;;;5069590;28;20032;-62
2022/11/12 07:26:20;;;;;;;8.32;6.30;;;5.20;99.90;;;;;;5072280;28;20024;-63
2022/11/12 07:28:48;;;;;;;8.48;5.93;;;5.20;99.90;;;;;;5070308;28;20028;-63
2022/11/12 07:31:15;;;;;;;9.13;6.90;;;5.20;99.90;;;;;;5073154;28;20063;-63
2022/11/12 07:33:41;;;;;;;10.40;7.38;;;5.30;99.90;;;;;;5059797;28;20017;-62
2022/11/12 07:36:09;;;;;;;10.95;7.32;;;5.30;99.90;;;;;;5065145;28;20043;-62
2022/11/12 07:38:37;;;;;;;12.05;7.95;;;5.30;99.90;;;;;;5057639;28;20028;-63
2022/11/12 07:41:04;;;;;;;12.85;7.50;;;5.30;99.90;;;;;;5065962;28;20283;-62
2022/11/12 07:43:32;;;;;;;12.48;8.30;;;5.40;99.90;;;;;;5061067;28;20121;-62
2022/11/12 07:46:12;;;;;;;10.68;8.02;;;5.40;99.90;;;;;;5061638;28;20033;-62
2022/11/12 07:48:38;;;;;;;;;;;5.40;99.90;;;;;;5070000;28;20522;-62
2022/11/12 07:51:06;;;;;;;13.32;8.50;;;5.40;99.90;;;;;;5072088;28;19957;-63
2022/11/12 07:53:31;;;;;;;14.68;8.30;;;5.40;99.90;;;;;;5072794;28;20008;-61
2022/11/12 07:55:59;;;;;;;15.90;9.10;;;5.50;99.90;;;;;;5067188;28;20104;-61
2022/11/12 07:58:26;;;;;;;14.02;9.55;;;5.50;99.90;;;;;;5072437;28;20024;-61
2022/11/12 08:00:53;;;;;;;12.80;9.60;;;5.60;99.90;;;;;;5071469;28;20392;-62
2022/11/12 08:03:19;;;;;;;16.15;10.43;;;5.60;99.90;;;;;;5069315;28;20020;-61
2022/11/12 08:05:45;;;;;;;14.23;9.80;;;5.70;99.90;;;;;;5070774;28;20545;-61
2022/11/12 08:08:11;;;;;;;18.60;10.50;;;5.70;99.90;;;;;;5070495;28;20082;-62
2022/11/12 08:10:37;;;;;;;14.82;10.82;;;5.80;99.90;;;;;;5069807;28;20036;-61
2022/11/12 08:13:03;;;;;;;14.75;9.38;;;5.90;99.90;;;;;;5069428;28;20025;-61
2022/11/12 08:15:28;;;;;;;14.35;10.70;;;5.90;99.90;;;;;;5065926;28;20107;-62
2022/11/12 08:17:54;;;;;;;16.63;10.82;;;6.00;99.90;;;;;;5072860;28;20067;-61
2022/11/12 08:20:20;;;;;;;13.60;9.90;;;6.00;99.90;;;;;;5068192;28;20024;-61
2022/11/12 08:22:46;;;;;;;18.23;10.38;;;6.10;99.90;;;;;;5072390;28;20036;-61
2022/11/12 08:25:11;;;;;;;17.42;10.75;;;6.20;99.90;;;;;;5072558;28;20029;-61
2022/11/12 08:27:37;;;;;;;12.90;9.07;;;6.30;99.90;;;;;;5068548;28;20021;-61
2022/11/12 08:30:03;;;;;;;13.85;9.13;;;6.30;99.90;;;;;;5066394;28;20484;-61
2022/11/12 08:32:29;;;;;;;12.77;8.80;;;6.40;99.90;;;;;;5065300;28;20021;-62
2022/11/12 08:34:54;;;;;;;14.52;9.88;;;6.50;99.90;;;;;;5065174;28;20036;-62
2022/11/12 08:37:20;;;;;;;13.77;10.50;;;6.50;99.90;;;;;;5070120;28;20016;-61
2022/11/12 08:39:45;;;;;;;15.23;9.20;;;6.60;99.90;;;;;;5059975;28;20025;-61
2022/11/12 08:42:11;;;;;;;16.75;10.15;;;6.70;99.90;;;;;;5064917;28;20036;-61
2022/11/12 08:44:36;;;;;;;15.32;9.75;;;6.80;99.90;;;;;;5071109;28;20067;-62
2022/11/12 08:47:02;;;;;;;14.02;9.43;;;6.90;99.90;;;;;;5072109;28;20039;-62
2022/11/12 08:49:31;;;;;;;15.25;10.13;;;7.00;99.90;;;;;;5064932;28;20024;-62
2022/11/12 08:51:56;;;;;;;15.02;9.95;;;7.10;99.90;;;;;;5071973;28;20028;-61
2022/11/12 08:54:22;;;;;;;13.00;8.88;;;7.20;99.90;;;;;;5072488;28;20082;-62
2022/11/12 08:56:48;;;;;;;14.18;10.45;;;7.30;99.90;;;;;;5066977;28;20524;-61
2022/11/12 08:59:13;;;;;;;14.95;9.82;;;7.30;99.90;;;;;;5072329;28;20107;-62
2022/11/12 09:01:39;;;;;;;16.58;10.13;;;7.40;99.90;;;;;;5070406;28;20025;-62
2022/11/12 09:04:05;;;;;;;13.73;9.70;;;7.50;99.90;;;;;;5064626;28;20048;-62
2022/11/12 09:06:30;;;;;;;10.52;8.98;;;7.60;99.90;;;;;;5070067;28;20476;-61
2022/11/12 09:08:56;;;;;;;14.13;9.82;;;7.70;99.90;;;;;;5062635;28;20017;-61
2022/11/12 09:11:21;;;;;;;13.35;9.52;;;7.80;99.90;;;;;;5070979;28;20020;-61
2022/11/12 09:13:47;;;;;;;12.05;9.35;;;7.90;99.90;;;;;;5064757;28;20017;-61
2022/11/12 09:16:12;;;;;;;12.52;9.07;;;7.90;99.90;;;;;;5065075;28;20020;-62
2022/11/12 09:18:38;;;;;;;13.55;9.05;;;8.10;99.90;;;;;;5060019;28;20111;-62
2022/11/12 09:21:10;;;;;;;11.90;9.65;;;8.20;99.90;;;;;;5072455;28;20036;-62
2022/11/12 09:23:36;;;;;;;10.90;8.65;;;8.30;99.90;;;;;;5069464;28;20031;-62
2022/11/12 09:26:05;;;;;;;9.77;7.93;;;8.50;99.90;;;;;;5072824;28;20021;-62
2022/11/12 09:28:30;;;;;;;11.37;8.87;;;8.60;99.90;;;;;;5076027;28;20036;-62
2022/11/12 09:30:56;;;;;;;11.57;8.50;;;8.80;99.90;;;;;;5075881;28;20070;-62
2022/11/12 09:33:28;;;;;;;11.25;8.20;;;8.90;99.90;;;;;;5063092;28;20474;-62
2022/11/12 09:35:54;;;;;;;8.85;7.65;;;9.00;99.90;;;;;;5076434;28;20434;-62
2022/11/12 09:38:21;;;;;;;12.57;7.82;;;9.10;99.90;;;;;;5060959;28;20465;-62
2022/11/12 09:41:11;;;;;;;10.02;7.30;;;9.10;99.90;;;;;;5081440;28;20024;-62
2022/11/12 09:43:43;;;;;;;10.90;7.53;;;9.20;99.90;;;;;;5075528;28;20093;-62
2022/11/12 09:46:39;;;;;;;8.93;6.43;;;9.40;99.90;;;;;;5062683;28;20497;-62
2022/11/12 09:49:11;;;;;;;11.48;6.95;;;9.60;99.90;;;;;;5067251;28;20504;-62
2022/11/12 09:51:52;;;;;;;8.70;6.85;;;9.90;99.90;;;;;;5074693;28;20028;-62
2022/11/12 09:54:27;;;;;;;10.02;6.53;;;10.30;99.90;;;;;;5085248;28;20090;-62
2022/11/12 09:56:53;;;;;;;8.15;5.80;;;10.60;99.90;;;;;;5070040;28;20021;-62
2022/11/12 09:59:20;;;;;;;9.35;6.35;;;11.10;99.90;;;;;;5066860;28;20599;-62
2022/11/12 10:02:16;;;;;;;9.30;6.40;;;11.50;99.90;;;;;;5063269;28;20032;-62
2022/11/12 10:04:59;;;;;;;8.23;5.53;;;12.10;99.90;;;;;;5072465;28;20032;-62
2022/11/12 10:07:39;;;;;;;10.95;6.28;;;13.00;99.90;;;;;;5071999;28;20545;-62
2022/11/12 10:10:39;;;;;;;6.50;5.22;;;13.40;98.60;;;;;;5070311;28;20083;-62
2022/11/12 10:13:34;;;;;;;7.28;5.30;;;13.60;97.90;;;;;;5066014;28;20028;-62
2022/11/12 10:19:22;;;;;;;7.43;4.70;;;13.90;96.20;;;;;;5068373;28;20084;-62
2022/11/12 10:22:07;;;;;;;7.65;4.70;;;14.40;95.90;;;;;;5075037;28;20093;-63
2022/11/12 10:24:36;;;;;;;6.35;4.65;;;15.10;94.20;;;;;;5063843;28;20020;-62
2022/11/12 10:27:25;;;;;;;5.00;4.38;;;15.70;93.10;;;;;;5074286;28;20744;-63
2022/11/12 10:29:57;;;;;;;;;;;16.40;91.50;;;;;;5075366;28;20035;-62
2022/11/12 10:32:22;;;;;;;4.30;3.60;;;16.60;89.40;;;;;;5061869;28;19999;-62
2022/11/12 10:34:48;;;;;;;5.40;4.13;;;16.80;87.10;;;;;;5073953;28;20100;-62
2022/11/12 10:37:27;;;;;;;4.65;3.45;;;17.00;86.00;;;;;;5073508;28;20040;-62
2022/11/12 10:39:53;;;;;;;4.13;3.50;;;17.50;84.30;;;;;;5073808;28;20060;-62
2022/11/12 10:42:20;;;;;;;4.70;3.80;;;18.10;81.70;;;;;;5069180;28;20449;-63
2022/11/12 10:44:47;;;;;;;5.30;3.90;;;18.40;80.10;;;;;;5073950;28;20535;-62
2022/11/12 10:47:31;;;;;;;6.10;4.35;;;18.70;77.60;;;;;;5057334;28;20057;-62
2022/11/12 10:50:16;;;;;;;5.63;3.33;;;19.10;76.50;;;;;;5070213;28;20396;-62
2022/11/12 10:53:02;;;;;;;3.78;2.95;;;19.50;77.10;;;;;;5068005;28;20028;-62
2022/11/12 10:55:36;;;;;;;4.05;3.63;;;19.90;72.90;;;;;;5073694;28;20546;-63
2022/11/12 10:58:09;;;;;;;5.32;3.10;;;20.20;71.80;;;;;;5073879;28;20090;-62
2022/11/12 11:00:35;;;;;;;3.45;2.83;;;20.50;68.40;;;;;;5070710;28;20032;-63
2022/11/12 11:03:14;;;;;;;4.53;3.42;;;20.80;66.40;;;;;;5074348;28;20052;-62
2022/11/12 11:05:45;;;;;;;3.75;3.08;;;21.00;65.10;;;;;;5074043;28;20392;-63
2022/11/12 11:08:11;;;;;;;3.83;2.88;;;21.60;63.50;;;;;;5074209;28;20036;-62
2022/11/12 11:10:36;;;;;;;4.80;3.50;;;22.30;62.80;;;;;;5068910;28;20024;-63
2022/11/12 11:13:25;;;;;;;3.65;3.00;;;22.60;60.10;;;;;;5072366;28;20017;-63
2022/11/12 11:16:16;;;;;;;3.63;2.50;;;23.00;60.10;;;;;;5072834;28;20013;-63
2022/11/12 11:18:46;;;;;;;3.97;3.35;;;23.60;57.70;;;;;;5059937;28;20040;-63
2022/11/12 11:21:36;;;;;;;4.32;3.03;;;23.80;56.60;;;;;;5070272;28;20511;-63
2022/11/12 11:24:11;;;;;;;4.93;2.65;;;24.40;56.20;;;;;;5072211;28;20032;-63
2022/11/12 11:27:03;;;;;;;2.58;1.60;;;26.00;56.90;;;;;;5072395;28;20500;-63
2022/11/12 11:29:54;;;;;;;2.13;1.67;;;28.00;55.70;;;;;;5071917;28;20438;-63
2022/11/12 11:32:57;;;;;;;3.03;1.98;;;29.70;54.00;;;;;;5071666;28;20016;-63
2022/11/12 11:35:47;;;;;;;2.05;1.55;;;30.80;52.20;;;;;;5073767;28;20083;-63
2022/11/12 11:38:33;;;;;;;2.97;2.05;;;31.80;50.90;;;;;;5068703;28;20461;-63
2022/11/12 11:41:29;;;;;;;2.38;1.50;;;32.50;49.60;;;;;;5065982;28;20016;-63
2022/11/12 11:44:26;;;;;;;1.67;1.40;;;33.40;48.40;;;;;;5069914;28;20052;-63
2022/11/12 11:47:30;;;;;;;1.45;1.30;;;34.30;47.00;;;;;;5060347;28;20025;-63
2022/11/12 11:50:18;;;;;;;1.38;1.20;;;35.00;45.70;;;;;;5038678;28;20400;-63
2022/11/12 11:52:53;;;;;;;2.05;1.38;;;35.70;44.50;;;;;;5084370;28;20032;-63
2022/11/12 11:55:22;;;;;;;1.85;1.52;;;36.20;43.60;;;;;;5073152;28;20020;-63
2022/11/12 11:58:39;;;;;;;1.80;1.60;;;36.60;42.70;;;;;;5065313;28;20040;-63
2022/11/12 12:01:46;;;;;;;2.00;1.63;;;37.20;42.00;;;;;;5038029;28;20396;-63
2022/11/12 12:04:12;;;;;;;2.00;1.55;;;37.20;40.70;;;;;;5083827;28;20056;-63
2022/11/12 12:07:10;;;;;;;2.10;1.63;;;37.40;40.40;;;;;;5070813;28;20060;-64
2022/11/12 12:10:13;;;;;;;3.30;2.00;;;37.70;39.70;;;;;;5038515;28;20032;-64
2022/11/12 12:12:51;;;;;;;1.85;1.50;;;38.30;39.30;;;;;;5070842;28;20021;-63
2022/11/12 12:15:54;;;;;;;1.60;1.42;;;38.60;38.50;;;;;;5058898;28;20047;-63
2022/11/12 12:18:29;;;;;;;1.90;1.65;;;39.10;37.90;;;;;;5068577;28;20013;-63
2022/11/12 12:21:01;;;;;;;1.60;1.50;;;39.60;37.30;;;;;;5072123;28;20078;-64
2022/11/12 12:23:40;;;;;;;3.00;1.48;;;40.00;36.90;;;;;;5066056;28;20081;-64
2022/11/12 12:26:15;;;;;;;3.30;1.77;;;40.30;36.40;;;;;;5085372;28;20487;-63
2022/11/12 12:28:55;;;;;;;1.67;1.55;;;40.50;35.90;;;;;;5067545;28;20024;-64
2022/11/12 12:31:28;;;;;;;2.20;1.90;;;40.40;35.40;;;;;;5071227;28;20067;-64
2022/11/12 12:34:01;;;;;;;1.80;1.70;;;39.50;32.40;;;;;;5070125;28;20040;-63
2022/11/12 12:36:40;;;;;;;2.88;2.17;;;38.10;32.70;;;;;;5070998;28;20074;-63
2022/11/12 12:39:21;;;;;;;3.00;2.22;;;36.30;32.40;;;;;;5071262;28;20016;-63
2022/11/12 12:42:09;;;;;;;2.85;1.88;;;34.40;33.30;;;;;;5069810;28;20077;-63
2022/11/12 12:45:03;;;;;;;;;;;33.00;33.70;;;;;;5071506;28;20088;-63
2022/11/12 12:47:39;;;;;;;3.40;2.30;;;32.10;34.30;;;;;;5066513;28;20003;-63
2022/11/12 12:50:11;;;;;;;2.55;2.20;;;31.20;35.20;;;;;;5058658;28;20515;-63
2022/11/12 12:53:17;;;;;;;2.53;2.28;;;30.80;35.60;;;;;;5060275;28;20040;-63
2022/11/12 12:55:51;;;;;;;3.00;1.90;;;31.30;36.00;;;;;;5066446;28;20017;-63
2022/11/12 12:58:44;;;;;;;3.28;2.78;;;31.90;35.60;;;;;;5070888;28;20021;-63
2022/11/12 13:01:22;;;;;;;3.58;2.90;;;32.40;34.70;;;;;;5072003;28;20078;-63
2022/11/12 13:04:10;;;;;;;3.60;3.30;;;31.90;34.80;;;;;;5059730;28;20035;-63
2022/11/12 13:06:48;;;;;;;3.78;3.00;;;31.00;35.50;;;;;;5070695;28;20482;-63
2022/11/12 13:09:13;;;;;;;3.63;3.28;;;30.20;37.00;;;;;;5065419;28;20044;-63
2022/11/12 13:14:35;;;;;;;4.75;4.00;;;29.00;38.30;;;;;;5055260;28;20174;-63
2022/11/12 13:17:09;;;;;;;4.33;3.93;;;28.70;39.00;;;;;;5059900;28;20025;-65
2022/11/12 13:19:44;;;;;;;5.57;4.38;;;28.40;39.40;;;;;;5071702;28;20103;-63
2022/11/12 13:22:16;;;;;;;5.68;4.15;;;28.30;40.60;;;;;;5054442;28;20864;-63
2022/11/12 13:25:06;;;;;;;5.93;3.97;;;28.10;40.70;;;;;;5071557;28;20028;-63
2022/11/12 13:27:46;;;;;;;5.05;4.32;;;27.90;41.10;;;;;;5067564;28;20042;-63
2022/11/12 13:30:12;;;;;;;4.10;3.70;;;27.70;41.00;;;;;;5058026;28;20025;-63
2022/11/12 13:32:46;;;;;;;6.28;3.88;;;27.60;42.00;;;;;;5072126;28;20021;-63